Time;durP1;ratioP1;P1;durP2;ratioP2;P2;SDS_P1;SDS_P2;PMS_P1;PMS_P2;Temp;Humidity;BMP_temperature;BMP_pressure;BME280_temperature;BME280_humidity;BME280_pressure;Samples;Min_cycle;Max_cycle;Signal;HPM_P1;HPM_P2
2023/07/05 00:29:50;;;;;;;8.57;4.95;;;;;;;15.49;100.00;100346.66;5541082;23;20063;-82
2023/07/05 00:32:15;;;;;;;9.35;5.45;;;;;;;14.21;100.00;100130.31;4856075;29;20521;-80
2023/07/05 00:38:46;;;;;;;8.73;4.68;;;;;;;15.34;100.00;100324.63;4861869;29;20402;-79
2023/07/05 00:55:14;;;;;;;8.45;4.35;;;;;;;15.23;100.00;100289.19;4861717;29;20089;-83
2023/07/05 00:58:23;;;;;;;8.25;4.40;;;;;;;15.23;100.00;100289.19;4861256;29;20041;-84
2023/07/05 01:11:49;;;;;;;7.40;3.85;;;;;;;13.77;100.00;100043.41;4861855;29;20082;-83
2023/07/05 01:35:22;;;;;;;7.35;4.45;;;;;;;15.16;100.00;100247.31;4861638;29;20045;-83
2023/07/05 01:37:55;;;;;;;8.45;3.83;;;;;;;14.44;100.00;100141.22;4860524;29;20042;-84
2023/07/05 02:00:37;;;;;;;5.47;3.08;;;;;;;15.04;100.00;100224.19;4840001;29;20052;-83
2023/07/05 02:03:23;;;;;;;4.70;2.88;;;;;;;14.30;100.00;100128.66;4823849;29;20169;-83
2023/07/05 02:06:22;;;;;;;6.70;2.90;;;;;;;15.21;100.00;100285.91;4839534;29;20034;-84
2023/07/05 02:12:50;;;;;;;5.82;2.92;;;;;;;15.05;100.00;100303.88;4856556;29;20037;-84
2023/07/05 02:15:16;;;;;;;5.43;2.80;;;;;;;14.86;100.00;100289.09;4861842;29;20058;-83
2023/07/05 02:18:31;;;;;;;6.70;2.75;;;;;;;14.96;100.00;100315.91;4864017;29;20105;-83
2023/07/05 02:24:11;;;;;;;3.95;2.45;;;;;;;14.74;100.00;100323.97;4849483;29;20048;-82
2023/07/05 02:26:39;;;;;;;4.72;2.50;;;;;;;13.38;100.00;100136.72;4864039;29;20484;-82
2023/07/05 02:44:27;;;;;;;6.70;3.67;;;;;;;13.37;100.00;100292.44;4882461;29;20596;-82
2023/07/05 02:47:42;;;;;;;4.32;3.13;;;;;;;13.80;100.00;100377.09;4882023;29;20037;-81
2023/07/05 02:53:21;;;;;;;6.43;3.30;;;;;;;12.87;100.00;100245.56;4882096;29;20105;-82
2023/07/05 02:56:30;;;;;;;5.72;3.08;;;;;;;13.53;100.00;100368.03;4881862;29;20484;-83
2023/07/05 03:02:29;;;;;;;7.53;2.97;;;;;;;13.31;100.00;100350.84;4881782;29;20064;-81
2023/07/05 03:05:13;;;;;;;5.45;3.00;;;;;;;12.46;100.00;100221.25;4881743;29;20057;-82
2023/07/05 03:08:03;;;;;;;5.22;3.08;;;;;;;13.25;100.00;100366.06;4881508;29;20033;-82
2023/07/05 03:14:12;;;;;;;7.05;3.10;;;;;;;13.05;100.00;100372.81;4881824;29;20044;-82
2023/07/05 03:20:52;;;;;;;6.57;3.22;;;;;;;12.99;100.00;100357.78;4881756;29;20116;-82
2023/07/05 03:23:54;;;;;;;5.70;2.97;;;;;;;12.98;100.00;100369.06;4881336;29;20029;-83
2023/07/05 03:26:43;;;;;;;6.75;3.38;;;;;;;12.97;100.00;100375.22;4880602;29;20084;-84
2023/07/05 03:29:09;;;;;;;6.28;3.03;;;;;;;12.45;100.00;100281.75;4881297;29;20108;-83
2023/07/05 03:31:34;;;;;;;6.85;3.42;;;;;;;12.97;100.00;100352.69;4881280;29;20111;-82
2023/07/05 03:34:00;;;;;;;6.00;3.03;;;;;;;13.10;100.00;100371.53;4881359;29;20033;-83
2023/07/05 03:45:35;;;;;;;6.78;3.85;;;;;;;13.28;100.00;100374.44;4844692;29;20044;-82
2023/07/05 03:49:11;;;;;;;7.75;4.30;;;;;;;13.31;100.00;100378.53;4848023;29;20049;-82
2023/07/05 04:18:50;;;;;;;8.10;3.95;;;;;;;13.53;100.00;100362.03;4843980;29;20049;-83
2023/07/05 04:34:50;;;;;;;10.43;4.30;;;;;;;12.93;100.00;100248.47;4843670;29;20114;-83
2023/07/05 04:46:06;;;;;;;;;;;;;;;;;;;;;
2023/07/05 04:49:18;;;;;;;9.10;4.45;;;;;;;13.74;100.00;100366.25;4859473;29;20514;-82
2023/07/05 04:51:48;;;;;;;9.52;4.47;;;;;;;13.12;99.26;100265.09;4860006;29;20041;-83
2023/07/05 04:54:41;;;;;;;9.55;4.78;;;;;;;13.83;99.92;100363.84;4860876;29;20029;-83
2023/07/05 05:00:50;;;;;;;8.80;4.35;;;;;;;14.06;98.69;100367.94;4859330;29;20113;-83
2023/07/05 05:26:56;;;;;;;9.32;4.45;;;;;;;13.87;96.17;100380.81;4840552;29;20113;-80
2023/07/05 05:29:21;;;;;;;8.13;3.35;;;;;;;13.81;95.78;100365.75;4840155;29;20539;-82
2023/07/05 05:35:48;;;;;;;7.55;4.25;;;;;;;14.00;95.41;100382.25;4840292;29;20045;-79
2023/07/05 05:38:18;;;;;;;8.02;3.65;;;;;;;13.56;94.16;100291.72;4839991;29;20477;-80
2023/07/05 05:44:25;;;;;;;9.98;4.05;;;;;;;12.44;95.26;100170.53;4840257;29;20117;-80
2023/07/05 05:46:53;;;;;;;8.23;4.30;;;;;;;13.73;96.66;100393.16;4839638;29;20086;-80
2023/07/05 05:49:44;;;;;;;6.28;3.60;;;;;;;12.43;98.20;100176.66;4839589;29;20084;-80
2023/07/05 05:52:28;;;;;;;7.30;4.05;;;;;;;13.29;98.55;100320.81;4839876;29;20093;-80
2023/07/05 05:54:53;;;;;;;8.77;4.10;;;;;;;12.31;97.47;100181.88;4839701;29;20036;-80
2023/07/05 06:01:37;;;;;;;9.68;4.13;;;;;;;13.57;98.90;100395.41;4855302;29;20109;-80
2023/07/05 06:04:32;;;;;;;8.68;4.20;;;;;;;13.10;100.00;100417.38;4821702;29;20042;-81
2023/07/05 06:11:05;;;;;;;8.63;4.00;;;;;;;12.87;100.00;100416.59;4839867;29;20040;-80
2023/07/05 06:13:52;;;;;;;;;;;;;;;13.00;100.00;100429.41;4840505;29;20564;-81
2023/07/05 06:50:36;;;;;;;5.63;2.50;;;;;;;18.39;72.08;100456.91;3329657;23;20273;-80
2023/07/05 06:53:23;;;;;;;4.70;2.30;;;;;;;18.15;71.48;100457.59;4915913;29;20072;-82
2023/07/05 07:11:32;;;;;;;7.97;2.67;;;;;;;17.22;72.67;100490.28;4861172;29;20056;-83
2023/07/05 07:14:29;;;;;;;10.88;2.58;;;;;;;16.79;75.53;100510.00;4860745;29;20046;-83
2023/07/05 07:20:32;;;;;;;18.90;2.95;;;;;;;15.32;80.98;100526.88;4886020;29;20063;-84
2023/07/05 07:30:40;;;;;;;;;;;;;;;;;;;;;
2023/07/05 07:33:11;;;;;;;5.30;2.40;;;;;;;15.96;75.93;100443.06;4854025;29;20048;-82
2023/07/05 07:35:52;;;;;;;5.72;2.38;;;;;;;15.53;77.86;100433.88;4919139;29;20083;-81
2023/07/05 07:38:33;;;;;;;5.68;2.50;;;;;;;15.04;82.33;100498.06;4919004;29;20031;-81
2023/07/05 07:41:18;;;;;;;6.43;2.90;;;;;;;15.05;87.35;100576.94;4911193;29;20036;-80
2023/07/05 07:44:06;;;;;;;5.63;2.97;;;;;;;14.72;89.42;100576.22;4918876;29;20032;-81
2023/07/05 07:46:41;;;;;;;5.65;2.97;;;;;;;14.39;90.98;100548.66;4918536;29;20076;-81
2023/07/05 07:49:43;;;;;;;5.18;2.90;;;;;;;14.49;91.72;100579.94;4912383;29;20509;-80
2023/07/05 07:52:33;;;;;;;5.28;3.00;;;;;;;14.71;90.94;100571.97;4938336;28;20139;-80
2023/07/05 07:55:13;;;;;;;6.50;3.25;;;;;;;14.05;90.58;100451.94;4956580;29;20063;-81
2023/07/05 07:58:11;;;;;;;5.30;3.20;;;;;;;15.14;90.23;100602.97;4922856;29;20039;-81
2023/07/05 08:01:21;;;;;;;4.47;3.00;;;;;;;15.33;91.60;100589.16;4956419;29;20055;-80
2023/07/05 08:04:16;;;;;;;5.93;3.75;;;;;;;15.51;89.21;100604.97;4878637;29;20127;-81
2023/07/05 08:06:48;;;;;;;7.38;3.42;;;;;;;14.22;89.36;100394.22;4823253;29;20043;-81
2023/07/05 08:15:44;;;;;;;10.48;4.40;;;;;;;14.90;91.02;100532.25;4805596;29;20110;-82
2023/07/05 08:18:32;;;;;;;7.22;3.72;;;;;;;15.38;90.16;100607.00;4804957;29;20099;-81
2023/07/05 08:34:47;;;;;;;9.00;4.28;;;;;;;15.44;87.38;100629.91;4806594;29;20103;-81
2023/07/05 08:37:22;;;;;;;9.05;4.15;;;;;;;14.89;88.12;100512.41;4804214;29;20071;-79
2023/07/05 08:40:53;;;;;;;17.52;5.07;;;;;;;14.98;84.83;100425.81;4808719;29;20035;-84
2023/07/05 08:44:02;;;;;;;6.75;4.13;;;;;;;16.81;83.47;100659.34;4834741;29;20065;-83
2023/07/05 08:46:37;;;;;;;8.65;4.22;;;;;;;16.25;82.75;100592.31;4874589;29;20037;-85
2023/07/05 08:49:27;;;;;;;9.18;4.10;;;;;;;16.42;86.14;100652.50;4859410;29;20041;-82
2023/07/05 08:51:56;;;;;;;7.28;4.03;;;;;;;16.05;86.35;100632.38;4859147;29;20179;-82
2023/07/05 08:54:22;;;;;;;8.88;4.13;;;;;;;16.23;86.07;100662.00;4859273;29;20558;-81
2023/07/05 08:56:51;;;;;;;8.38;3.95;;;;;;;16.68;83.59;100669.25;4843568;29;20041;-80
2023/07/05 08:59:47;;;;;;;8.07;4.05;;;;;;;17.28;82.48;100676.75;4859094;29;20074;-82
2023/07/05 09:02:16;;;;;;;8.98;3.92;;;;;;;17.39;78.18;100682.63;4858861;29;20080;-81
2023/07/05 09:04:49;;;;;;;10.27;3.47;;;;;;;17.56;77.38;100680.22;4859190;29;20033;-83
2023/07/05 09:07:39;;;;;;;8.02;3.67;;;;;;;17.72;76.78;100699.53;4859129;29;20486;-84
2023/07/05 09:10:22;;;;;;;11.73;4.00;;;;;;;17.64;75.52;100702.03;4859159;29;20037;-84
2023/07/05 09:13:20;;;;;;;7.13;3.85;;;;;;;17.82;76.55;100696.88;4870692;29;20130;-84
2023/07/05 09:26:17;;;;;;;;;;;;;;;;;;;;;
2023/07/05 09:49:28;;;;;;;5.95;2.40;;;;;;;17.55;71.30;100796.88;4895965;29;20402;-83
2023/07/05 10:13:48;;;;;;;6.55;1.80;;;;;;;17.30;58.78;100620.03;4767580;30;20051;-82
2023/07/05 10:53:33;;;;;;;4.88;1.23;;;;;;;19.12;53.37;100873.38;4842212;29;20079;-83
2023/07/05 10:56:22;;;;;;;7.28;1.50;;;;;;;19.21;53.99;100889.97;4864547;29;20131;-82
2023/07/05 11:02:36;;;;;;;5.63;1.20;;;;;;;19.73;51.46;100908.38;4842945;29;20395;-82
2023/07/05 11:08:49;;;;;;;5.40;1.38;;;;;;;19.63;49.95;100856.09;4917273;29;20651;-82
2023/07/05 11:14:43;;;;;;;6.07;1.35;;;;;;;19.05;49.71;100863.66;4918478;29;20047;-83
2023/07/05 11:20:39;;;;;;;5.32;1.80;;;;;;;18.69;51.24;100944.75;4917834;29;20117;-83
2023/07/05 11:29:41;;;;;;;5.07;1.40;;;;;;;19.53;48.55;100914.78;4919293;29;19919;-83
2023/07/05 11:32:08;;;;;;;5.30;1.13;;;;;;;18.45;47.97;100777.88;4918982;29;20036;-82
2023/07/05 11:35:29;;;;;;;5.68;1.50;;;;;;;19.60;47.84;100937.63;4916248;29;20090;-82
2023/07/05 11:41:37;;;;;;;3.55;1.25;;;;;;;19.38;47.18;100760.00;4918992;29;20091;-82
2023/07/05 13:33:33;;;;;;;5.22;1.63;;;;;;;21.87;39.96;101078.66;4926233;29;20118;-83
2023/07/05 13:36:31;;;;;;;2.60;1.30;;;;;;;21.72;39.63;101078.47;4935592;29;20055;-85
2023/07/05 13:39:21;;;;;;;2.05;1.10;;;;;;;21.56;40.89;101091.59;4918587;29;20052;-83
2023/07/05 13:45:30;;;;;;;;;;;;;;;21.31;42.27;101098.59;4935000;29;20041;-83
2023/07/05 13:57:58;;;;;;;4.60;1.58;;;;;;;21.51;43.88;101049.22;4935801;29;20390;-81
2023/07/05 14:00:54;;;;;;;5.30;1.70;;;;;;;21.85;44.04;101096.41;4935320;29;20133;-83
2023/07/05 14:38:15;;;;;;;5.15;1.90;;;;;;;20.16;45.32;100953.88;4954739;29;20039;-84
2023/07/05 14:44:30;;;;;;;;;;;;;;;21.11;45.37;101118.19;4954851;29;20106;-81
2023/07/05 14:55:59;;;;;;;3.78;1.80;;;;;;;21.01;46.48;101134.06;4898581;29;20390;-90
2023/07/05 15:12:27;;;;;;;5.50;1.90;;;;;;;21.42;46.27;101142.13;4914835;29;20039;-86
2023/07/05 15:18:52;;;;;;;6.47;2.00;;;;;;;21.39;45.86;101147.72;4916561;29;20040;-86
2023/07/05 15:21:29;;;;;;;3.25;1.90;;;;;;;20.32;44.72;100957.38;4881800;29;20044;-85
2023/07/05 15:27:51;;;;;;;4.80;1.85;;;;;;;21.52;46.91;101149.88;4919591;29;20549;-89
2023/07/05 15:34:10;;;;;;;;;;;;;;;21.68;46.20;101150.75;5174154;23;20158;-86
2023/07/05 15:40:29;;;;;;;4.93;2.00;;;;;;;21.58;46.86;101159.75;4900631;29;20513;-86
2023/07/05 15:50:02;;;;;;;;;;;;;;;21.51;48.54;101170.09;4900701;29;20466;-88
2023/07/05 15:53:20;;;;;;;3.88;1.60;;;;;;;21.22;49.10;101173.06;4900097;29;19966;-85
2023/07/05 15:55:46;;;;;;;5.30;1.95;;;;;;;20.12;49.34;101020.69;4899870;29;20123;-85
2023/07/05 16:01:41;;;;;;;5.78;2.10;;;;;;;21.03;48.69;101194.28;4899863;29;20055;-88
2023/07/05 16:05:03;;;;;;;4.82;2.10;;;;;;;21.04;48.20;101198.56;4899455;29;20032;-87
2023/07/05 16:10:43;;;;;;;5.70;2.03;;;;;;;20.23;48.92;101030.94;4899669;29;19971;-87
2023/07/05 16:13:20;;;;;;;6.68;2.55;;;;;;;20.47;47.79;101067.03;4899688;29;20480;-87
2023/07/05 16:16:29;;;;;;;4.57;1.80;;;;;;;20.90;48.60;101156.16;4899797;29;20028;-85
2023/07/05 16:18:55;;;;;;;8.00;2.40;;;;;;;20.95;49.00;101192.47;4901990;29;20039;-86
2023/07/05 16:21:32;;;;;;;5.70;1.90;;;;;;;19.90;48.76;101037.75;4918690;29;20030;-88
2023/07/05 16:24:08;;;;;;;5.25;1.95;;;;;;;19.94;49.37;101050.38;4918880;29;20481;-89
2023/07/05 16:29:52;;;;;;;5.85;1.90;;;;;;;20.08;48.99;101040.34;4918653;29;20070;-89
2023/07/05 16:32:50;;;;;;;5.25;2.10;;;;;;;21.11;49.27;101207.47;4918294;29;20493;-87
2023/07/05 16:35:17;;;;;;;8.23;2.50;;;;;;;20.82;50.13;101150.03;4917676;29;20542;-85
2023/07/05 16:41:33;;;;;;;5.82;1.85;;;;;;;21.60;49.69;101205.91;4936663;29;20086;-89
2023/07/05 16:44:06;;;;;;;5.75;2.13;;;;;;;21.17;50.17;101146.47;4936725;29;20501;-89
2023/07/05 16:50:18;;;;;;;5.93;2.00;;;;;;;21.58;48.64;101217.59;4936709;29;20050;-83
2023/07/05 16:52:56;;;;;;;5.90;1.92;;;;;;;20.66;49.93;101108.78;4936663;29;20032;-84
2023/07/05 16:55:24;;;;;;;6.82;2.10;;;;;;;21.03;49.62;101213.50;4936552;29;20466;-83
2023/07/05 16:58:05;;;;;;;4.75;2.15;;;;;;;20.23;51.34;101123.53;4936452;29;20031;-82
2023/07/05 17:00:43;;;;;;;5.47;2.05;;;;;;;20.54;52.17;101167.72;4936419;29;20051;-81
2023/07/05 17:06:53;;;;;;;;;;;;;;;20.83;52.62;101239.13;4937111;29;20119;-82
2023/07/05 17:33:58;;;;;;;6.38;2.10;;;;;;;19.32;53.28;101085.31;4897965;29;20446;-83
2023/07/05 17:36:39;;;;;;;6.53;2.38;;;;;;;19.23;53.61;101087.00;4897424;29;20128;-82
2023/07/05 17:39:09;;;;;;;6.55;2.30;;;;;;;19.48;53.87;101150.97;5129345;23;20138;-81
2023/07/05 17:41:35;;;;;;;4.45;1.80;;;;;;;19.77;56.79;101204.06;4954896;29;20039;-81
2023/07/05 17:44:24;;;;;;;5.63;2.13;;;;;;;19.65;56.15;101202.59;4914281;29;20044;-81
2023/07/05 17:46:56;;;;;;;4.32;2.05;;;;;;;19.12;56.66;101121.25;4914138;29;20092;-84
2023/07/05 17:49:25;;;;;;;5.78;2.47;;;;;;;19.42;58.23;101170.69;4914367;29;20044;-84
2023/07/05 17:55:20;;;;;;;;;;;;;;;20.28;56.69;101286.53;4913939;29;20099;-82
2023/07/05 17:57:46;;;;;;;5.55;2.17;;;;;;;19.60;55.26;101162.91;4915123;29;19916;-82
2023/07/05 18:00:12;;;;;;;3.65;1.80;;;;;;;19.68;54.61;101191.00;4914247;29;20035;-83
2023/07/05 18:02:37;;;;;;;7.93;2.63;;;;;;;19.74;54.80;101263.78;4914161;29;20079;-79
2023/07/05 18:05:05;;;;;;;4.32;2.08;;;;;;;19.43;55.60;101269.25;4914788;29;20106;-81
2023/07/05 18:07:31;;;;;;;4.32;2.38;;;;;;;19.39;57.11;101304.56;4898728;29;20036;-80
2023/07/05 18:09:59;;;;;;;5.88;2.28;;;;;;;19.16;57.86;101293.56;4914391;29;20047;-82
2023/07/05 18:12:37;;;;;;;7.13;2.58;;;;;;;18.88;58.47;101263.91;4914214;29;20494;-84
2023/07/05 18:15:46;;;;;;;4.53;2.08;;;;;;;19.11;58.98;101314.13;4914310;29;20044;-81
2023/07/05 18:18:17;;;;;;;5.45;2.33;;;;;;;17.91;60.13;101140.16;4914114;29;20549;-80
2023/07/05 18:20:43;;;;;;;;;;;;;;;19.02;59.17;101314.97;4922661;29;20042;-82
2023/07/05 18:23:34;;;;;;;7.68;2.80;;;;;;;18.55;61.46;101287.81;4954123;29;20284;-83
2023/07/05 18:29:34;;;;;;;7.82;2.65;;;;;;;17.48;63.82;101156.94;4954278;29;20050;-81
2023/07/05 18:32:37;;;;;;;6.47;3.00;;;;;;;18.49;62.59;101349.34;4954207;29;20031;-81
2023/07/05 18:35:03;;;;;;;4.53;2.22;;;;;;;17.48;63.35;101197.88;4954329;29;20486;-82
2023/07/05 18:37:35;;;;;;;5.32;2.80;;;;;;;17.77;65.35;101252.88;4954144;29;20027;-82
2023/07/05 18:40:39;;;;;;;4.40;2.25;;;;;;;17.96;64.95;101273.00;4936704;29;20047;-82
2023/07/05 18:43:21;;;;;;;8.48;2.70;;;;;;;17.36;64.96;101151.97;4953924;29;20058;-83
2023/07/05 18:46:11;;;;;;;;;;;;;;;;;;;;;
2023/07/05 18:48:37;;;;;;;5.63;2.53;;;;;;;17.82;72.05;101283.81;4873125;29;20031;-80
2023/07/05 18:51:27;;;;;;;4.68;2.50;;;;;;;18.10;72.42;101360.69;4936915;29;20118;-82
2023/07/05 18:53:53;;;;;;;4.40;2.42;;;;;;;17.08;72.56;101244.81;4936023;29;20036;-81
2023/07/05 18:56:25;;;;;;;7.63;3.55;;;;;;;16.48;77.64;101189.75;4954268;28;20028;-85
2023/07/05 19:06:42;;;;;;;6.63;2.83;;;;;;;16.55;88.16;101391.66;4958111;29;20102;-89
2023/07/05 19:19:34;;;;;;;6.45;2.97;;;;;;;16.00;94.36;101362.09;4880074;29;20048;-83
2023/07/05 19:29:09;;;;;;;5.80;3.47;;;;;;;15.74;99.00;101317.25;4806240;29;20037;-81
2023/07/05 19:31:59;;;;;;;4.43;3.35;;;;;;;16.18;97.12;101387.69;4806083;29;20137;-80
2023/07/05 19:34:42;;;;;;;6.43;3.50;;;;;;;15.70;97.97;101323.63;4805952;29;20069;-85
2023/07/05 19:37:10;;;;;;;5.55;3.50;;;;;;;14.92;98.94;101222.81;4805706;29;20169;-80
2023/07/05 19:40:04;;;;;;;5.75;3.50;;;;;;;15.99;98.42;101407.34;4803763;29;20122;-80
2023/07/05 19:42:41;;;;;;;7.78;3.88;;;;;;;15.13;99.74;101261.97;4805273;29;20532;-79
2023/07/05 19:45:10;;;;;;;7.20;3.97;;;;;;;15.21;99.67;101287.44;4805584;29;20035;-80
2023/07/05 19:47:46;;;;;;;6.63;3.55;;;;;;;15.14;99.38;101300.09;4790755;29;20035;-80
2023/07/05 19:50:14;;;;;;;6.70;3.80;;;;;;;15.78;100.00;101407.19;4805489;29;20070;-79
2023/07/05 19:52:39;;;;;;;7.07;3.88;;;;;;;15.04;100.00;101287.84;4805793;29;20467;-80
2023/07/05 19:55:07;;;;;;;5.82;3.70;;;;;;;15.69;100.00;101413.09;4805239;29;20067;-79
2023/07/05 19:57:33;;;;;;;6.68;3.97;;;;;;;15.59;100.00;101412.09;4805630;29;20026;-80
2023/07/05 19:59:58;;;;;;;6.03;3.63;;;;;;;15.42;100.00;101391.69;4805467;29;20532;-82
2023/07/05 20:02:24;;;;;;;7.07;4.30;;;;;;;15.41;100.00;101418.66;4857224;29;20041;-80
2023/07/05 20:04:52;;;;;;;10.02;4.05;;;;;;;15.42;100.00;101428.13;4878587;29;20480;-80
2023/07/05 20:07:17;;;;;;;7.78;4.47;;;;;;;15.36;100.00;101428.59;4878689;29;20435;-80
2023/07/05 20:09:43;;;;;;;6.85;4.32;;;;;;;14.91;100.00;101360.75;4877707;29;20045;-80
2023/07/05 20:12:11;;;;;;;6.20;4.53;;;;;;;15.15;100.00;101398.00;4878661;29;20491;-81
2023/07/05 20:14:36;;;;;;;7.18;4.50;;;;;;;15.16;100.00;101410.06;4878738;29;20033;-81
2023/07/05 20:17:02;;;;;;;7.47;4.55;;;;;;;15.12;100.00;101413.81;4878722;29;20041;-81
2023/07/05 20:19:29;;;;;;;8.50;4.88;;;;;;;15.19;100.00;101442.81;4934504;29;20047;-81
2023/07/05 20:21:54;;;;;;;6.93;4.70;;;;;;;15.17;100.00;101444.72;4936882;29;20031;-80
2023/07/05 20:24:26;;;;;;;7.75;4.47;;;;;;;15.09;100.00;101447.03;4936976;29;20079;-80
2023/07/05 20:26:51;;;;;;;8.57;4.65;;;;;;;15.11;100.00;101440.78;4937101;29;20059;-81
2023/07/05 20:29:16;;;;;;;7.50;4.53;;;;;;;15.11;100.00;101440.78;4937175;29;20059;-81
2023/07/05 20:31:43;;;;;;;6.70;4.43;;;;;;;15.15;100.00;101441.41;4937117;29;20038;-80
2023/07/05 20:34:18;;;;;;;8.52;4.30;;;;;;;14.62;100.00;101365.44;4936725;29;20099;-80
2023/07/05 20:36:44;;;;;;;8.02;4.28;;;;;;;14.61;100.00;101372.41;4936976;29;20055;-79
2023/07/05 20:39:16;;;;;;;7.95;4.60;;;;;;;15.13;100.00;101445.84;4934785;29;20071;-81
2023/07/05 20:42:18;;;;;;;7.40;4.60;;;;;;;15.17;100.00;101448.13;4939248;29;20051;-82
2023/07/05 20:44:44;;;;;;;6.80;4.50;;;;;;;15.15;100.00;101459.59;4955653;29;20027;-80
2023/07/05 20:47:44;;;;;;;6.35;4.45;;;;;;;15.18;100.00;101455.00;4938856;29;20442;-81
2023/07/05 20:50:31;;;;;;;7.72;4.93;;;;;;;14.69;100.00;101390.06;4955930;29;20031;-84
2023/07/05 20:53:17;;;;;;;6.72;4.97;;;;;;;15.09;100.00;101462.63;4956017;29;20410;-82
2023/07/05 20:59:21;;;;;;;;;;;;;;;14.58;100.00;101423.81;4956547;29;20090;-81
2023/07/05 21:01:47;;;;;;;9.65;5.50;;;;;;;13.78;100.00;101316.78;4955814;29;19914;-85
2023/07/05 21:04:15;;;;;;;12.65;5.75;;;;;;;14.72;100.00;101474.81;4955777;29;20106;-86
2023/07/05 21:06:59;;;;;;;9.20;5.55;;;;;;;14.52;100.00;101434.63;4955481;29;20035;-85
2023/07/05 21:09:31;;;;;;;9.68;5.43;;;;;;;14.30;100.00;101399.69;4955266;29;20027;-84
2023/07/05 21:12:11;;;;;;;9.70;5.72;;;;;;;14.00;100.00;101350.72;4955640;29;20035;-85
2023/07/05 21:14:38;;;;;;;8.45;6.30;;;;;;;14.62;100.00;101444.25;4955661;29;20023;-85
2023/07/05 21:17:08;;;;;;;9.70;5.55;;;;;;;14.71;100.00;101478.34;4955472;29;20031;-85
2023/07/05 21:19:34;;;;;;;9.75;5.38;;;;;;;14.65;100.00;101471.84;4955156;28;20035;-85
2023/07/05 21:22:01;;;;;;;9.35;5.90;;;;;;;14.59;100.00;101474.84;4954585;29;20112;-85
2023/07/05 21:24:27;;;;;;;9.80;6.05;;;;;;;14.67;100.00;101479.53;4954888;29;20031;-85
2023/07/05 21:26:53;;;;;;;9.60;6.05;;;;;;;14.66;100.00;101470.88;4955121;29;20078;-85
2023/07/05 21:29:28;;;;;;;;;;;;;;;;;;;;;
2023/07/05 21:35:24;;;;;;;9.23;6.10;;;;;;;14.30;100.00;101437.84;4955238;29;20046;-84
2023/07/05 21:37:50;;;;;;;9.48;6.28;;;;;;;14.02;100.00;101389.56;4955130;29;20385;-79
2023/07/05 21:40:21;;;;;;;9.02;6.18;;;;;;;13.44;100.00;101297.47;4937385;29;20136;-84
2023/07/05 21:42:46;;;;;;;9.02;6.00;;;;;;;14.52;100.00;101471.00;4928322;29;20043;-85
2023/07/05 21:45:44;;;;;;;10.68;6.57;;;;;;;13.52;100.00;101304.75;4935454;29;20470;-85
2023/07/05 21:48:30;;;;;;;9.63;6.32;;;;;;;14.25;100.00;101422.56;4935377;29;20389;-83
2023/07/05 21:51:09;;;;;;;8.02;5.93;;;;;;;14.38;100.00;101438.16;4918488;29;20470;-85
2023/07/05 21:53:34;;;;;;;8.90;6.18;;;;;;;14.65;100.00;101492.63;4918550;29;20123;-84
2023/07/05 21:56:15;;;;;;;10.70;6.50;;;;;;;14.25;100.00;101427.75;4901942;29;20122;-84
2023/07/05 21:58:50;;;;;;;10.75;6.22;;;;;;;13.91;100.00;101376.47;4935608;29;20397;-84
2023/07/05 22:01:31;;;;;;;10.73;6.47;;;;;;;13.51;100.00;101316.06;4935309;29;20024;-86
2023/07/05 22:04:11;;;;;;;;;;;;;;;14.70;100.00;101498.31;4935827;29;20393;-84
2023/07/05 22:06:57;;;;;;;12.52;6.35;;;;;;;13.55;100.00;101328.69;4935179;29;19918;-83
2023/07/05 22:09:31;;;;;;;8.82;6.28;;;;;;;13.45;100.00;101323.31;4935178;29;20028;-83
2023/07/05 22:11:59;;;;;;;11.60;6.55;;;;;;;14.57;100.00;101508.75;4935132;29;20521;-82
2023/07/05 22:14:29;;;;;;;11.50;6.68;;;;;;;14.27;100.00;101464.88;4935292;29;20478;-83
2023/07/05 22:16:54;;;;;;;12.48;6.75;;;;;;;14.41;100.00;101489.91;4935512;29;20024;-82
2023/07/05 22:19:20;;;;;;;11.10;6.93;;;;;;;14.51;100.00;101503.97;4917686;29;20130;-82
2023/07/05 22:21:48;;;;;;;10.70;7.05;;;;;;;14.15;100.00;101460.50;4935123;29;20385;-83
2023/07/05 22:24:15;;;;;;;9.75;6.70;;;;;;;14.11;100.00;101453.03;4934928;29;20075;-84
2023/07/05 22:26:41;;;;;;;10.07;6.22;;;;;;;14.25;100.00;101476.28;4935064;29;20456;-84
2023/07/05 22:29:07;;;;;;;10.93;6.53;;;;;;;14.47;100.00;101512.91;4935068;29;20043;-83
2023/07/05 22:31:33;;;;;;;9.52;6.97;;;;;;;14.34;100.00;101496.44;4935464;29;20028;-83
2023/07/05 22:33:58;;;;;;;9.05;6.65;;;;;;;14.20;100.00;101480.97;4939017;29;20028;-84
2023/07/05 22:36:24;;;;;;;9.85;6.47;;;;;;;14.34;100.00;101497.28;4938906;29;20039;-85
2023/07/05 22:38:49;;;;;;;11.27;6.53;;;;;;;14.48;100.00;101530.16;4922010;29;20023;-85
2023/07/05 22:41:15;;;;;;;11.18;7.25;;;;;;;14.32;100.00;101516.50;4938630;29;20052;-83
2023/07/05 22:43:40;;;;;;;11.73;6.80;;;;;;;14.14;100.00;101497.78;4938668;29;20043;-84
2023/07/05 22:46:09;;;;;;;10.90;6.82;;;;;;;14.30;100.00;101528.78;4938928;29;20030;-84
2023/07/05 22:48:36;;;;;;;11.93;7.05;;;;;;;14.26;100.00;101533.34;4938915;29;20553;-84
2023/07/05 22:54:15;;;;;;;9.38;6.82;;;;;;;12.89;100.00;101338.22;4880567;29;20452;-86
2023/07/05 22:56:50;;;;;;;10.38;7.00;;;;;;;12.86;100.00;101338.41;4879981;29;20043;-84
2023/07/05 22:59:28;;;;;;;11.90;7.35;;;;;;;13.30;100.00;101419.47;4879732;29;20120;-84
2023/07/05 23:02:00;;;;;;;12.52;7.35;;;;;;;13.49;100.00;101454.50;4879629;29;20255;-84
2023/07/05 23:04:26;;;;;;;14.27;7.88;;;;;;;13.24;100.00;101420.69;4879914;29;20479;-83
2023/07/05 23:06:51;;;;;;;11.30;7.30;;;;;;;13.68;100.00;101490.47;4879823;29;20028;-79
2023/07/05 23:09:26;;;;;;;15.40;7.75;;;;;;;13.78;100.00;101508.88;4864174;29;20044;-84
2023/07/05 23:11:57;;;;;;;11.85;6.80;;;;;;;13.33;100.00;101453.81;4879125;29;20041;-82
2023/07/05 23:14:22;;;;;;;11.63;7.47;;;;;;;12.64;100.00;101345.91;4879658;29;20029;-84
2023/07/05 23:17:06;;;;;;;10.77;7.32;;;;;;;12.53;100.00;101340.56;4864070;29;20033;-83
2023/07/05 23:19:32;;;;;;;12.32;7.70;;;;;;;13.19;100.00;101464.28;4879665;29;20075;-84
2023/07/05 23:22:07;;;;;;;13.57;7.20;;;;;;;13.22;100.00;101471.00;4879513;29;20486;-84
2023/07/05 23:28:26;;;;;;;12.60;8.07;;;;;;;13.76;100.00;101540.13;4879120;29;20174;-85
2023/07/05 23:57:17;;;;;;;12.60;8.27;;;;;;;13.16;100.00;101415.97;4933227;29;20405;-81
2023/07/05 23:59:43;;;;;;;11.38;8.00;;;;;;;13.78;100.00;101514.06;4937516;29;20070;-84
